Time;durP1;ratioP1;P1;durP2;ratioP2;P2;SDS_P1;SDS_P2;PMS_P1;PMS_P2;Temp;Humidity;BMP_temperature;BMP_pressure;BME280_temperature;BME280_humidity;BME280_pressure;Samples;Min_cycle;Max_cycle;Signal;HPM_P1;HPM_P2
2021/12/22 00:00:42;;;;;;;19.63;8.77;;;;;;;;;;5028481;28;20035;-78
2021/12/22 00:03:09;;;;;;;25.15;10.15;;;;;;;;;;5030372;28;20508;-77
2021/12/22 00:05:43;;;;;;;20.73;9.05;;;;;;;;;;5033538;28;20048;-78
2021/12/22 00:08:12;;;;;;;22.77;9.98;;;;;;;;;;5033500;28;20399;-77
2021/12/22 00:10:40;;;;;;;21.70;11.18;;;;;;;;;;5033362;28;20045;-77
2021/12/22 00:13:06;;;;;;;22.52;11.55;;;;;;;;;;5029231;28;20034;-77
2021/12/22 00:15:32;;;;;;;19.83;9.82;;;;;;;;;;5033409;28;20029;-77
2021/12/22 00:17:58;;;;;;;23.02;9.57;;;;;;;;;;5033553;28;20483;-77
2021/12/22 00:20:24;;;;;;;24.55;10.30;;;;;;;;;;5033518;28;20053;-78
2021/12/22 00:22:50;;;;;;;22.67;10.68;;;;;;;;;;5033760;28;20045;-77
2021/12/22 00:25:16;;;;;;;21.58;9.55;;;;;;;;;;5033163;28;20032;-77
2021/12/22 00:27:48;;;;;;;24.33;9.93;;;;;;;;;;5033634;28;20045;-77
2021/12/22 00:30:14;;;;;;;18.58;9.50;;;;;;;;;;5033680;28;20387;-77
2021/12/22 00:32:40;;;;;;;18.02;8.90;;;;;;;;;;5033387;28;20129;-77
2021/12/22 00:35:09;;;;;;;16.08;9.13;;;;;;;;;;5033118;28;20057;-77
2021/12/22 00:37:35;;;;;;;20.67;9.55;;;;;;;;;;5033278;28;20068;-77
2021/12/22 00:40:03;;;;;;;22.55;9.07;;;;;;;;;;5034138;28;20431;-77
2021/12/22 00:42:29;;;;;;;18.55;9.32;;;;;;;;;;5032960;28;20487;-77
2021/12/22 00:44:55;;;;;;;20.98;9.73;;;;;;;;;;5033096;28;20045;-77
2021/12/22 00:47:25;;;;;;;21.58;9.30;;;;;;;;;;5033443;28;20046;-77
2021/12/22 00:49:51;;;;;;;17.98;9.07;;;;;;;;;;5033262;28;20052;-77
2021/12/22 00:52:17;;;;;;;18.05;8.82;;;;;;;;;;5033367;28;20087;-77
2021/12/22 00:54:43;;;;;;;19.70;9.60;;;;;;;;;;5033420;28;20038;-77
2021/12/22 00:57:10;;;;;;;17.30;8.77;;;;;;;;;;5033523;28;20041;-78
2021/12/22 00:59:36;;;;;;;19.38;8.93;;;;;;;;;;5032950;28;20041;-78
2021/12/22 01:02:05;;;;;;;22.00;9.43;;;;;;;;;;5032871;28;20033;-78
2021/12/22 01:04:32;;;;;;;21.45;8.77;;;;;;;;;;5032138;28;20037;-78
2021/12/22 01:06:57;;;;;;;19.00;9.43;;;;;;;;;;5032953;28;20049;-78
2021/12/22 01:09:23;;;;;;;22.20;9.25;;;;;;;;;;5032299;28;20116;-78
2021/12/22 01:11:50;;;;;;;23.95;9.63;;;;;;;;;;5032262;28;20546;-77
2021/12/22 01:14:16;;;;;;;20.05;9.75;;;;;;;;;;5030722;28;20036;-77
2021/12/22 01:16:48;;;;;;;19.38;9.57;;;;;;;;;;5031737;28;20030;-78
2021/12/22 01:19:26;;;;;;;22.30;9.90;;;;;;;;;;5031649;28;20502;-78
2021/12/22 01:22:01;;;;;;;19.17;8.55;;;;;;;;;;5031604;28;20056;-78
2021/12/22 01:24:33;;;;;;;17.60;8.80;;;;;;;;;;5031292;28;20478;-78
2021/12/22 01:27:08;;;;;;;18.02;8.60;;;;;;;;;;5011883;28;20045;-78
2021/12/22 01:29:38;;;;;;;20.40;9.35;;;;;;;;;;5012667;28;20034;-78
2021/12/22 01:32:05;;;;;;;19.98;9.30;;;;;;;;;;5012865;28;20037;-77
2021/12/22 01:34:31;;;;;;;18.92;9.52;;;;;;;;;;5012554;28;20026;-78
2021/12/22 01:36:58;;;;;;;22.77;9.57;;;;;;;;;;5012636;28;20452;-78
2021/12/22 01:39:24;;;;;;;21.23;9.68;;;;;;;;;;5012705;28;20045;-78
2021/12/22 01:41:50;;;;;;;19.02;9.10;;;;;;;;;;5012549;28;20029;-78
2021/12/22 01:44:28;;;;;;;24.40;10.85;;;;;;;;;;5020572;28;20045;-78
2021/12/22 01:49:50;;;;;;;21.10;9.68;;;;;;;;;;5032344;28;20025;-78
2021/12/22 01:52:18;;;;;;;18.02;9.52;;;;;;;;;;5031800;28;20482;-78
2021/12/22 01:54:48;;;;;;;18.23;9.55;;;;;;;;;;5031362;28;20030;-78
2021/12/22 01:57:15;;;;;;;18.77;9.15;;;;;;;;;;5031372;28;20435;-78
2021/12/22 01:59:43;;;;;;;22.42;9.95;;;;;;;;;;5030709;28;20042;-78
2021/12/22 02:02:11;;;;;;;21.00;10.23;;;;;;;;;;5031370;28;20475;-78
2021/12/22 02:04:38;;;;;;;22.58;9.68;;;;;;;;;;5031589;28;20033;-78
2021/12/22 02:07:06;;;;;;;22.00;10.27;;;;;;;;;;5031638;28;20026;-77
2021/12/22 02:12:01;;;;;;;17.27;9.50;;;;;;;;;;5031533;28;20029;-78
2021/12/22 02:14:27;;;;;;;21.67;9.85;;;;;;;;;;5031225;28;20036;-78
2021/12/22 02:16:53;;;;;;;23.77;10.00;;;;;;;;;;5031161;28;20104;-78
2021/12/22 02:19:19;;;;;;;20.35;8.90;;;;;;;;;;5037607;22;20526;-78
2021/12/22 02:21:51;;;;;;;23.90;9.38;;;;;;;;;;5030640;28;20045;-78
2021/12/22 02:24:17;;;;;;;16.98;8.88;;;;;;;;;;5031014;28;20049;-78
2021/12/22 02:26:52;;;;;;;18.58;9.15;;;;;;;;;;5045009;28;20476;-78
2021/12/22 02:29:23;;;;;;;16.85;9.02;;;;;;;;;;5030904;28;20033;-78
2021/12/22 02:32:13;;;;;;;18.00;9.35;;;;;;;;;;5027815;28;20041;-78
2021/12/22 02:34:43;;;;;;;21.55;9.98;;;;;;;;;;5030799;28;20060;-79
2021/12/22 02:37:13;;;;;;;22.83;9.43;;;;;;;;;;5030294;28;20329;-78
2021/12/22 02:39:53;;;;;;;21.45;10.02;;;;;;;;;;5029887;28;20048;-78
2021/12/22 02:42:23;;;;;;;22.65;10.70;;;;;;;;;;5029877;28;20045;-78
2021/12/22 02:44:51;;;;;;;20.20;9.27;;;;;;;;;;5029928;28;20037;-78
2021/12/22 02:47:21;;;;;;;21.42;9.82;;;;;;;;;;5028478;28;20041;-78
2021/12/22 02:49:47;;;;;;;22.70;10.98;;;;;;;;;;5027964;28;20599;-77
2021/12/22 02:52:15;;;;;;;22.73;10.93;;;;;;;;;;5030437;28;20036;-77
2021/12/22 02:54:54;;;;;;;23.50;10.77;;;;;;;;;;5029813;28;20052;-77
2021/12/22 02:57:29;;;;;;;21.80;9.90;;;;;;;;;;5028443;28;20049;-77
2021/12/22 03:03:01;;;;;;;21.98;10.38;;;;;;;;;;5030210;28;20483;-77
2021/12/22 03:05:28;;;;;;;22.90;10.10;;;;;;;;;;5029864;28;20407;-77
2021/12/22 03:07:55;;;;;;;20.15;10.57;;;;;;;;;;5029104;28;20045;-77
2021/12/22 03:10:21;;;;;;;21.38;10.25;;;;;;;;;;5029566;28;20049;-77
2021/12/22 03:12:53;;;;;;;24.70;10.38;;;;;;;;;;5029893;28;20029;-77
2021/12/22 03:15:19;;;;;;;;;;;;;;;;;;5030510;28;20467;-77
2021/12/22 03:17:46;;;;;;;20.77;9.52;;;;;;;;;;5030088;28;20306;-77
2021/12/22 03:20:14;;;;;;;20.40;10.45;;;;;;;;;;5029695;28;20518;-77
2021/12/22 03:22:43;;;;;;;22.98;11.05;;;;;;;;;;5029770;28;20029;-76
2021/12/22 03:25:17;;;;;;;24.35;10.95;;;;;;;;;;5029380;28;20375;-77
2021/12/22 03:27:46;;;;;;;21.13;10.45;;;;;;;;;;5015057;28;20026;-77
2021/12/22 03:30:14;;;;;;;20.67;10.20;;;;;;;;;;5009822;28;20033;-77
2021/12/22 03:32:40;;;;;;;30.33;11.05;;;;;;;;;;5009817;28;20045;-76
2021/12/22 03:35:08;;;;;;;26.23;11.27;;;;;;;;;;5009932;28;20032;-77
2021/12/22 03:37:34;;;;;;;23.23;11.98;;;;;;;;;;5011048;28;20369;-77
2021/12/22 03:40:00;;;;;;;22.05;11.00;;;;;;;;;;5014045;28;20087;-77
2021/12/22 03:42:26;;;;;;;27.98;11.70;;;;;;;;;;5014103;28;20026;-76
2021/12/22 03:44:52;;;;;;;22.58;10.80;;;;;;;;;;5013826;28;20353;-77
2021/12/22 03:47:19;;;;;;;25.15;11.40;;;;;;;;;;5014148;28;20113;-76
2021/12/22 03:49:45;;;;;;;22.67;10.95;;;;;;;;;;5014637;28;20318;-77
2021/12/22 03:52:12;;;;;;;28.17;11.52;;;;;;;;;;5012853;28;20138;-77
2021/12/22 03:54:38;;;;;;;23.33;11.80;;;;;;;;;;5013969;28;20041;-77
2021/12/22 03:57:04;;;;;;;21.17;10.57;;;;;;;;;;5014240;28;20038;-76
2021/12/22 03:59:30;;;;;;;24.70;11.73;;;;;;;;;;5013953;28;20096;-78
2021/12/22 04:01:56;;;;;;;23.88;10.88;;;;;;;;;;5013685;28;20048;-78
2021/12/22 04:04:22;;;;;;;31.23;11.48;;;;;;;;;;5013644;28;20512;-78
2021/12/22 04:06:49;;;;;;;25.95;11.90;;;;;;;;;;5013283;28;20066;-78
2021/12/22 04:09:16;;;;;;;18.90;10.43;;;;;;;;;;5011909;28;20499;-78
2021/12/22 04:11:43;;;;;;;25.70;11.10;;;;;;;;;;5013763;28;20041;-77
2021/12/22 04:14:10;;;;;;;29.17;11.73;;;;;;;;;;5011675;28;20038;-78
2021/12/22 04:16:36;;;;;;;24.20;11.07;;;;;;;;;;5013531;28;20030;-78
2021/12/22 04:19:03;;;;;;;22.63;11.05;;;;;;;;;;5013392;28;20044;-78
2021/12/22 04:21:30;;;;;;;25.20;11.82;;;;;;;;;;5012958;28;20369;-78
2021/12/22 04:23:56;;;;;;;19.95;10.50;;;;;;;;;;5011590;28;20148;-77
2021/12/22 04:26:23;;;;;;;25.75;11.00;;;;;;;;;;5013240;28;20037;-78
2021/12/22 04:28:49;;;;;;;26.38;10.80;;;;;;;;;;5013297;28;20034;-77
2021/12/22 04:31:15;;;;;;;23.25;10.73;;;;;;;;;;5013448;28;20022;-78
2021/12/22 04:33:41;;;;;;;21.40;10.48;;;;;;;;;;5014677;28;20135;-78
2021/12/22 04:36:08;;;;;;;20.17;10.18;;;;;;;;;;5014346;28;20034;-78
2021/12/22 04:38:36;;;;;;;26.35;10.07;;;;;;;;;;5014342;28;20379;-78
2021/12/22 04:41:05;;;;;;;22.40;10.57;;;;;;;;;;5014520;28;20460;-77
2021/12/22 04:43:31;;;;;;;25.98;10.65;;;;;;;;;;5013783;28;20414;-78
2021/12/22 04:45:57;;;;;;;23.83;11.48;;;;;;;;;;5013035;28;20109;-77
2021/12/22 04:48:26;;;;;;;22.15;10.45;;;;;;;;;;5011585;28;20120;-77
2021/12/22 04:50:51;;;;;;;21.75;10.57;;;;;;;;;;5014287;28;20025;-77
2021/12/22 04:53:24;;;;;;;27.73;13.15;;;;;;;;;;5011990;28;20100;-77
2021/12/22 04:55:50;;;;;;;23.90;11.10;;;;;;;;;;5012648;28;20037;-77
2021/12/22 04:58:16;;;;;;;20.75;11.15;;;;;;;;;;5012570;28;20021;-77
2021/12/22 05:00:43;;;;;;;25.10;11.40;;;;;;;;;;5012900;28;20134;-77
2021/12/22 05:03:08;;;;;;;25.73;11.27;;;;;;;;;;5013186;28;20421;-77
2021/12/22 05:05:34;;;;;;;26.73;11.18;;;;;;;;;;5022007;28;20072;-78
2021/12/22 05:08:01;;;;;;;20.88;11.57;;;;;;;;;;5033197;28;20614;-77
2021/12/22 05:10:27;;;;;;;24.80;10.38;;;;;;;;;;5015926;28;20025;-76
2021/12/22 05:12:53;;;;;;;25.15;10.98;;;;;;;;;;5033787;28;20038;-77
2021/12/22 05:15:22;;;;;;;27.65;11.18;;;;;;;;;;5021643;28;20595;-76
2021/12/22 05:18:12;;;;;;;23.48;11.32;;;;;;;;;;5013051;28;20042;-77
2021/12/22 05:20:35;;;;;;;25.23;11.73;;;;;;;;;;5012871;28;20053;-76
2021/12/22 05:23:01;;;;;;;19.63;9.73;;;;;;;;;;5012895;28;20038;-76
2021/12/22 05:25:27;;;;;;;22.23;11.23;;;;;;;;;;5012758;28;20061;-76
2021/12/22 05:27:53;;;;;;;24.55;11.68;;;;;;;;;;5012802;28;20437;-77
2021/12/22 05:30:21;;;;;;;25.27;11.98;;;;;;;;;;5012458;28;20045;-77
2021/12/22 05:32:47;;;;;;;22.10;10.80;;;;;;;;;;5011294;28;20041;-76
2021/12/22 05:35:13;;;;;;;27.23;11.30;;;;;;;;;;5012561;28;20034;-77
2021/12/22 05:37:40;;;;;;;21.08;11.18;;;;;;;;;;5012327;28;20121;-76
2021/12/22 05:40:07;;;;;;;32.30;12.05;;;;;;;;;;5012704;28;20048;-76
2021/12/22 05:42:33;;;;;;;23.60;11.43;;;;;;;;;;5012568;28;20041;-76
2021/12/22 05:44:59;;;;;;;23.20;11.52;;;;;;;;;;5012472;28;20037;-77
2021/12/22 05:47:25;;;;;;;23.45;11.93;;;;;;;;;;5011911;28;20034;-76
2021/12/22 05:49:51;;;;;;;30.95;12.45;;;;;;;;;;5011807;28;20117;-77
2021/12/22 05:52:20;;;;;;;23.65;11.30;;;;;;;;;;5011982;28;20109;-76
2021/12/22 05:54:46;;;;;;;23.70;12.18;;;;;;;;;;5011895;28;20360;-77
2021/12/22 05:57:12;;;;;;;22.52;11.30;;;;;;;;;;5025448;28;20045;-77
2021/12/22 05:59:38;;;;;;;32.70;13.20;;;;;;;;;;5032897;28;20024;-77
2021/12/22 06:02:04;;;;;;;53.60;24.45;;;;;;;;;;5022154;28;20181;-78
2021/12/22 06:04:30;;;;;;;30.05;13.15;;;;;;;;;;5033367;28;20040;-77
2021/12/22 06:06:56;;;;;;;27.35;11.60;;;;;;;;;;5033629;28;20016;-77
2021/12/22 06:09:22;;;;;;;25.77;12.25;;;;;;;;;;5026433;28;20034;-77
2021/12/22 06:11:47;;;;;;;24.52;11.40;;;;;;;;;;5032763;28;20045;-78
2021/12/22 06:14:13;;;;;;;21.48;11.10;;;;;;;;;;5034225;28;20037;-78
2021/12/22 06:16:39;;;;;;;23.20;10.43;;;;;;;;;;5033196;28;20029;-78
2021/12/22 06:19:08;;;;;;;22.83;11.10;;;;;;;;;;5031881;28;20060;-75
2021/12/22 06:21:38;;;;;;;26.40;11.68;;;;;;;;;;5015007;28;20034;-70
2021/12/22 06:24:04;;;;;;;24.52;11.43;;;;;;;;;;5016507;28;20045;-79
2021/12/22 06:26:30;;;;;;;28.30;12.05;;;;;;;;;;5033301;28;20044;-77
2021/12/22 06:28:56;;;;;;;24.38;11.52;;;;;;;;;;5025533;28;20041;-78
2021/12/22 06:31:22;;;;;;;23.13;10.93;;;;;;;;;;5029523;28;20037;-76
2021/12/22 06:33:48;;;;;;;21.77;10.90;;;;;;;;;;5030888;28;20033;-75
2021/12/22 06:36:14;;;;;;;22.92;11.77;;;;;;;;;;5029515;28;20076;-76
2021/12/22 06:38:40;;;;;;;24.13;11.07;;;;;;;;;;5009557;28;20209;-76
2021/12/22 06:41:06;;;;;;;26.83;11.35;;;;;;;;;;5009465;28;20022;-77
2021/12/22 06:43:32;;;;;;;31.88;11.35;;;;;;;;;;5012737;28;20026;-76
2021/12/22 06:45:58;;;;;;;25.50;12.40;;;;;;;;;;4995105;28;20037;-78
2021/12/22 06:48:24;;;;;;;26.45;12.57;;;;;;;;;;5004696;28;20122;-76
2021/12/22 06:50:50;;;;;;;26.25;11.52;;;;;;;;;;4993692;28;20042;-77
2021/12/22 06:53:16;;;;;;;25.20;11.82;;;;;;;;;;5011206;28;20044;-76
2021/12/22 06:55:41;;;;;;;24.63;12.02;;;;;;;;;;5012194;28;20054;-76
2021/12/22 06:58:07;;;;;;;23.30;11.48;;;;;;;;;;5011084;28;20033;-76
2021/12/22 07:00:36;;;;;;;24.73;11.73;;;;;;;;;;5012262;28;20068;-76
2021/12/22 07:03:04;;;;;;;78.68;32.35;;;;;;;;;;5011245;28;20026;-77
2021/12/22 07:05:31;;;;;;;26.30;13.90;;;;;;;;;;5012494;28;20478;-77
2021/12/22 07:07:57;;;;;;;26.48;12.90;;;;;;;;;;5012541;28;20041;-76
2021/12/22 07:10:23;;;;;;;23.10;11.40;;;;;;;;;;5010064;28;20072;-75
2021/12/22 07:12:49;;;;;;;21.95;11.77;;;;;;;;;;5011070;28;20116;-77
2021/12/22 07:15:17;;;;;;;22.10;11.02;;;;;;;;;;5011812;28;20391;-76
2021/12/22 07:17:46;;;;;;;23.60;12.07;;;;;;;;;;5011862;28;20356;-76
2021/12/22 07:20:17;;;;;;;21.30;10.55;;;;;;;;;;5011826;28;20050;-76
2021/12/22 07:22:43;;;;;;;21.45;10.85;;;;;;;;;;5010100;28;20045;-78
2021/12/22 07:25:12;;;;;;;32.20;15.45;;;;;;;;;;5009326;28;20049;-77
2021/12/22 07:27:38;;;;;;;27.25;12.00;;;;;;;;;;5010595;28;20355;-78
2021/12/22 07:30:05;;;;;;;27.73;12.57;;;;;;;;;;4976227;28;20033;-78
2021/12/22 07:32:30;;;;;;;21.60;11.13;;;;;;;;;;4998802;28;20602;-78
2021/12/22 07:35:03;;;;;;;21.13;11.50;;;;;;;;;;5008912;28;20101;-78
2021/12/22 07:37:40;;;;;;;23.33;11.52;;;;;;;;;;5010050;28;20392;-78
2021/12/22 07:40:16;;;;;;;23.08;10.68;;;;;;;;;;5009960;28;20029;-77
2021/12/22 07:42:43;;;;;;;27.48;11.10;;;;;;;;;;5002600;28;20022;-77
2021/12/22 07:45:11;;;;;;;23.02;11.23;;;;;;;;;;5010342;28;20511;-76
2021/12/22 07:47:40;;;;;;;24.70;11.02;;;;;;;;;;4995519;28;20477;-78
2021/12/22 07:50:07;;;;;;;23.02;10.80;;;;;;;;;;5005532;28;20046;-79
2021/12/22 07:52:34;;;;;;;24.52;11.32;;;;;;;;;;4993664;28;20049;-78
2021/12/22 07:55:00;;;;;;;23.13;10.73;;;;;;;;;;5001234;28;20041;-79
2021/12/22 07:57:26;;;;;;;26.05;12.77;;;;;;;;;;4996499;28;20038;-79
2021/12/22 07:59:52;;;;;;;23.95;11.05;;;;;;;;;;5007996;28;20029;-80
2021/12/22 08:02:18;;;;;;;19.25;9.95;;;;;;;;;;5009076;28;20038;-81
2021/12/22 08:04:44;;;;;;;17.65;9.13;;;;;;;;;;4998882;28;20062;-80
2021/12/22 08:07:10;;;;;;;18.88;10.10;;;;;;;;;;5001991;28;20117;-80
2021/12/22 08:09:36;;;;;;;16.75;10.18;;;;;;;;;;5008891;28;20037;-80
2021/12/22 08:12:05;;;;;;;20.90;9.73;;;;;;;;;;5010683;28;20037;-79
2021/12/22 08:14:36;;;;;;;26.88;9.98;;;;;;;;;;5009682;28;20033;-79
2021/12/22 08:17:03;;;;;;;17.75;9.63;;;;;;;;;;5009911;28;20491;-81
2021/12/22 08:19:29;;;;;;;22.08;10.07;;;;;;;;;;5005892;28;20077;-78
2021/12/22 08:21:55;;;;;;;15.52;9.32;;;;;;;;;;5009006;28;20528;-76
2021/12/22 08:24:22;;;;;;;14.60;8.27;;;;;;;;;;5007791;28;20411;-77
2021/12/22 08:26:48;;;;;;;14.50;8.52;;;;;;;;;;5009220;28;20037;-76
2021/12/22 08:29:13;;;;;;;17.48;8.90;;;;;;;;;;5007028;28;20041;-76
2021/12/22 08:31:39;;;;;;;26.02;14.52;;;;;;;;;;5010769;28;20109;-75
2021/12/22 08:34:06;;;;;;;20.13;9.70;;;;;;;;;;5012600;28;20084;-76
2021/12/22 08:39:17;;;;;;;17.98;9.27;;;;;;;;;;5011393;28;20042;-75
2021/12/22 08:41:47;;;;;;;16.27;9.00;;;;;;;;;;5012100;28;20041;-76
2021/12/22 08:44:16;;;;;;;17.37;9.93;;;;;;;;;;5008521;28;20053;-76
2021/12/22 08:46:48;;;;;;;25.50;10.05;;;;;;;;;;5010158;28;20045;-77
2021/12/22 08:49:14;;;;;;;16.90;9.27;;;;;;;;;;5013012;28;20400;-75
2021/12/22 08:51:40;;;;;;;21.33;9.18;;;;;;;;;;5012086;28;20045;-77
2021/12/22 08:54:07;;;;;;;18.25;9.70;;;;;;;;;;5010798;28;20074;-77
2021/12/22 08:56:34;;;;;;;16.60;9.25;;;;;;;;;;5012394;28;20053;-77
2021/12/22 08:59:00;;;;;;;17.20;10.13;;;;;;;;;;5013766;28;20591;-76
2021/12/22 09:01:27;;;;;;;19.52;9.75;;;;;;;;;;5013922;28;20037;-77
2021/12/22 09:03:53;;;;;;;16.40;9.00;;;;;;;;;;4994571;28;20042;-77
2021/12/22 09:06:19;;;;;;;19.13;10.43;;;;;;;;;;5008934;28;20061;-77
2021/12/22 09:08:45;;;;;;;17.98;9.43;;;;;;;;;;5012478;28;20025;-76
2021/12/22 09:11:13;;;;;;;17.65;9.82;;;;;;;;;;5012194;28;20041;-76
2021/12/22 09:13:40;;;;;;;19.17;9.52;;;;;;;;;;5013408;28;20472;-76
2021/12/22 09:16:07;;;;;;;18.85;10.38;;;;;;;;;;5012021;28;20049;-75
2021/12/22 09:18:34;;;;;;;20.35;10.07;;;;;;;;;;5013015;28;20025;-76
2021/12/22 09:21:00;;;;;;;21.17;10.18;;;;;;;;;;5010442;28;20046;-76
2021/12/22 09:23:27;;;;;;;17.83;9.82;;;;;;;;;;5012635;28;20408;-76
2021/12/22 09:25:52;;;;;;;17.23;9.20;;;;;;;;;;5012479;28;20586;-75
2021/12/22 09:28:19;;;;;;;15.02;9.27;;;;;;;;;;5012290;28;20038;-76
2021/12/22 09:30:46;;;;;;;19.58;10.02;;;;;;;;;;5011311;28;20049;-77
2021/12/22 09:33:15;;;;;;;15.80;9.48;;;;;;;;;;5009868;28;20059;-78
2021/12/22 09:35:43;;;;;;;19.75;10.48;;;;;;;;;;5011204;28;20515;-77
2021/12/22 09:38:09;;;;;;;19.17;9.80;;;;;;;;;;5012052;28;20042;-76
2021/12/22 09:40:36;;;;;;;18.27;9.23;;;;;;;;;;5012340;28;20140;-76
2021/12/22 09:43:03;;;;;;;18.90;9.63;;;;;;;;;;5011902;28;20022;-74
2021/12/22 09:45:29;;;;;;;20.13;11.10;;;;;;;;;;5011427;28;20030;-76
2021/12/22 09:53:10;;;;;;;19.48;10.23;;;;;;;;;;5013393;28;20049;-77
2021/12/22 09:55:36;;;;;;;18.20;10.50;;;;;;;;;;5011249;28;20035;-76
2021/12/22 09:58:04;;;;;;;18.70;9.85;;;;;;;;;;5012519;28;20391;-76
2021/12/22 10:00:35;;;;;;;21.27;11.38;;;;;;;;;;5012235;28;20042;-76
2021/12/22 10:03:02;;;;;;;16.02;9.90;;;;;;;;;;5010692;28;20045;-78
2021/12/22 10:05:28;;;;;;;18.40;10.23;;;;;;;;;;5008414;28;20524;-78
2021/12/22 10:08:12;;;;;;;18.50;10.85;;;;;;;;;;5002450;28;20045;-75
2021/12/22 10:10:45;;;;;;;18.45;10.75;;;;;;;;;;5008654;28;20042;-74
2021/12/22 10:13:19;;;;;;;20.42;11.25;;;;;;;;;;5011895;28;20526;-74
2021/12/22 10:15:47;;;;;;;20.05;10.43;;;;;;;;;;5009431;28;20049;-75
2021/12/22 10:18:15;;;;;;;18.98;11.23;;;;;;;;;;5011557;28;20026;-74
2021/12/22 10:20:44;;;;;;;18.40;10.70;;;;;;;;;;5008384;28;20042;-73
2021/12/22 10:23:25;;;;;;;19.85;11.73;;;;;;;;;;5011479;28;20499;-77
2021/12/22 10:26:01;;;;;;;21.20;10.52;;;;;;;;;;5011712;28;20048;-82
2021/12/22 10:28:30;;;;;;;19.63;10.57;;;;;;;;;;5012024;28;20511;-77
2021/12/22 10:31:01;;;;;;;19.02;10.20;;;;;;;;;;5008093;28;20034;-76
2021/12/22 10:33:30;;;;;;;17.75;10.35;;;;;;;;;;5011019;28;20030;-76
2021/12/22 10:36:08;;;;;;;17.38;10.00;;;;;;;;;;4999295;28;20049;-76
2021/12/22 10:38:34;;;;;;;17.40;10.38;;;;;;;;;;4994719;28;20038;-76
2021/12/22 10:41:08;;;;;;;17.60;9.35;;;;;;;;;;5007596;28;20080;-78
2021/12/22 10:43:41;;;;;;;18.50;10.52;;;;;;;;;;5008952;28;20038;-77
2021/12/22 10:46:07;;;;;;;18.33;9.65;;;;;;;;;;5011347;28;20422;-77
2021/12/22 10:51:27;;;;;;;19.98;10.68;;;;;;;;;;5011163;28;20038;-77
2021/12/22 10:53:54;;;;;;;20.25;11.02;;;;;;;;;;5011017;28;20510;-77
2021/12/22 10:56:21;;;;;;;20.27;10.90;;;;;;;;;;4995569;28;20045;-77
2021/12/22 10:58:59;;;;;;;18.33;11.20;;;;;;;;;;5011059;28;20037;-77
2021/12/22 11:01:25;;;;;;;18.90;11.20;;;;;;;;;;5011466;28;20411;-77
2021/12/22 11:03:55;;;;;;;22.65;11.30;;;;;;;;;;5009721;28;20064;-77
2021/12/22 11:06:25;;;;;;;20.10;10.93;;;;;;;;;;5000523;28;20022;-76
2021/12/22 11:09:05;;;;;;;21.02;10.82;;;;;;;;;;5011119;28;20118;-76
2021/12/22 11:11:36;;;;;;;17.33;10.68;;;;;;;;;;5010302;28;20061;-75
2021/12/22 11:14:07;;;;;;;22.38;11.85;;;;;;;;;;5009054;28;20037;-78
2021/12/22 11:16:54;;;;;;;17.90;10.32;;;;;;;;;;5009820;28;20041;-75
2021/12/22 11:19:21;;;;;;;18.70;10.38;;;;;;;;;;5010220;28;20526;-78
2021/12/22 11:22:05;;;;;;;16.92;10.25;;;;;;;;;;5010320;28;20045;-79
2021/12/22 11:24:34;;;;;;;17.00;9.98;;;;;;;;;;5006595;28;20403;-79
2021/12/22 11:27:00;;;;;;;17.02;10.60;;;;;;;;;;5010724;28;20494;-79
2021/12/22 11:29:27;;;;;;;18.20;10.77;;;;;;;;;;5010070;28;20423;-77
2021/12/22 11:31:53;;;;;;;46.80;23.50;;;;;;;;;;5010911;28;20034;-75
2021/12/22 11:34:21;;;;;;;18.25;10.65;;;;;;;;;;5011058;28;20028;-73
2021/12/22 11:36:50;;;;;;;22.38;11.50;;;;;;;;;;5010277;28;20029;-74
2021/12/22 11:39:17;;;;;;;20.42;10.77;;;;;;;;;;5008594;28;20041;-77
2021/12/22 11:41:44;;;;;;;18.35;11.00;;;;;;;;;;5002364;28;20125;-78
2021/12/22 11:44:11;;;;;;;19.55;10.73;;;;;;;;;;4990625;28;20037;-76
2021/12/22 11:46:38;;;;;;;20.08;10.30;;;;;;;;;;4991156;28;20038;-79
2021/12/22 11:49:04;;;;;;;18.42;11.50;;;;;;;;;;5009392;28;20038;-77
2021/12/22 11:51:34;;;;;;;21.52;11.88;;;;;;;;;;5011547;28;20046;-82
2021/12/22 11:54:08;;;;;;;18.88;11.70;;;;;;;;;;5011246;28;20049;-81
2021/12/22 11:56:40;;;;;;;16.60;11.30;;;;;;;;;;5010057;28;20049;-77
2021/12/22 11:59:25;;;;;;;21.40;11.95;;;;;;;;;;5010231;28;20030;-78
2021/12/22 12:02:23;;;;;;;21.40;11.25;;;;;;;;;;5014217;28;20022;-77
2021/12/22 12:04:54;;;;;;;18.65;11.13;;;;;;;;;;5006177;28;20038;-77
2021/12/22 12:07:54;;;;;;;24.02;12.52;;;;;;;;;;5007149;28;20050;-77
2021/12/22 12:10:45;;;;;;;22.38;12.45;;;;;;;;;;5013748;28;20224;-77
2021/12/22 12:13:23;;;;;;;20.17;12.23;;;;;;;;;;5014689;28;20041;-77
2021/12/22 12:22:07;;;;;;;23.77;12.10;;;;;;;;;;5012364;28;20042;-77
2021/12/22 12:24:38;;;;;;;21.67;11.85;;;;;;;;;;5011362;28;20042;-77
2021/12/22 12:27:42;;;;;;;21.60;12.40;;;;;;;;;;5014198;28;20345;-77
2021/12/22 12:30:11;;;;;;;21.70;12.15;;;;;;;;;;4997952;28;20130;-76
2021/12/22 12:32:43;;;;;;;20.08;12.63;;;;;;;;;;5016072;28;20048;-77
2021/12/22 12:35:17;;;;;;;22.98;12.77;;;;;;;;;;5019294;28;20037;-77
2021/12/22 12:38:08;;;;;;;21.65;12.75;;;;;;;;;;5020286;28;20476;-77
2021/12/22 12:40:57;;;;;;;22.43;11.40;;;;;;;;;;5020497;28;20038;-77
2021/12/22 12:46:28;;;;;;;21.27;12.40;;;;;;;;;;5011413;28;20502;-77
2021/12/22 12:49:16;;;;;;;24.23;12.73;;;;;;;;;;5014670;28;20045;-77
2021/12/22 12:51:42;;;;;;;22.85;12.23;;;;;;;;;;5003604;28;20241;-77
2021/12/22 12:54:17;;;;;;;29.35;15.88;;;;;;;;;;5012718;28;20092;-78
2021/12/22 12:56:45;;;;;;;25.55;14.50;;;;;;;;;;5006668;28;20403;-78
2021/12/22 12:59:14;;;;;;;21.48;12.85;;;;;;;;;;5010896;28;20049;-78
2021/12/22 13:04:23;;;;;;;21.85;12.80;;;;;;;;;;5011413;28;20479;-77
2021/12/22 13:06:55;;;;;;;23.35;13.43;;;;;;;;;;5011766;28;20494;-77
2021/12/22 13:09:30;;;;;;;25.30;13.10;;;;;;;;;;5009605;28;20049;-77
2021/12/22 13:17:53;;;;;;;25.52;14.10;;;;;;;;;;5012415;28;20038;-76
2021/12/22 13:20:23;;;;;;;24.13;13.43;;;;;;;;;;5011561;28;20057;-76
2021/12/22 13:22:50;;;;;;;24.13;13.10;;;;;;;;;;5012096;28;20449;-77
2021/12/22 13:25:25;;;;;;;26.60;14.55;;;;;;;;;;5013128;28;20042;-77
2021/12/22 13:28:13;;;;;;;23.25;13.23;;;;;;;;;;5008462;28;20038;-77
2021/12/22 13:30:43;;;;;;;24.75;13.50;;;;;;;;;;5010720;28;20052;-77
2021/12/22 13:33:27;;;;;;;22.98;13.18;;;;;;;;;;5012326;28;20042;-77
2021/12/22 13:36:05;;;;;;;25.27;12.95;;;;;;;;;;5012874;28;20033;-75
2021/12/22 13:38:37;;;;;;;24.67;12.88;;;;;;;;;;5012732;28;20038;-75
2021/12/22 13:41:07;;;;;;;23.95;13.40;;;;;;;;;;5012217;28;20030;-75
2021/12/22 13:43:38;;;;;;;26.65;14.32;;;;;;;;;;5009818;28;20530;-75
2021/12/22 13:46:08;;;;;;;23.73;14.50;;;;;;;;;;5009630;28;20046;-75
2021/12/22 13:48:36;;;;;;;24.85;13.20;;;;;;;;;;5011993;28;20034;-75
2021/12/22 13:51:05;;;;;;;33.72;20.27;;;;;;;;;;5010975;28;20045;-75
2021/12/22 13:53:32;;;;;;;29.20;14.50;;;;;;;;;;5012175;28;20042;-75
2021/12/22 13:55:59;;;;;;;23.10;13.50;;;;;;;;;;5011412;28;20026;-75
2021/12/22 13:58:30;;;;;;;23.25;12.95;;;;;;;;;;5012089;28;20121;-75
2021/12/22 14:01:28;;;;;;;24.38;13.43;;;;;;;;;;5011249;28;20049;-75
2021/12/22 14:03:56;;;;;;;23.63;12.88;;;;;;;;;;4993030;28;20065;-75
2021/12/22 14:06:27;;;;;;;21.98;13.02;;;;;;;;;;4991212;28;20042;-75
2021/12/22 14:09:06;;;;;;;21.02;12.18;;;;;;;;;;4992351;28;20448;-75
2021/12/22 14:11:44;;;;;;;21.15;12.63;;;;;;;;;;4997673;28;20499;-75
2021/12/22 14:14:25;;;;;;;20.92;12.27;;;;;;;;;;5010267;28;20484;-75
2021/12/22 14:17:06;;;;;;;21.67;12.32;;;;;;;;;;4996663;28;20049;-75
2021/12/22 14:19:34;;;;;;;25.30;13.73;;;;;;;;;;5000821;28;20061;-75
2021/12/22 14:22:27;;;;;;;19.25;11.73;;;;;;;;;;4997977;28;20045;-75
2021/12/22 14:24:57;;;;;;;21.80;12.25;;;;;;;;;;4999523;28;20046;-75
2021/12/22 14:27:30;;;;;;;21.42;11.80;;;;;;;;;;4997596;28;20064;-76
2021/12/22 14:29:58;;;;;;;26.17;12.63;;;;;;;;;;4997361;28;20664;-74
2021/12/22 14:32:35;;;;;;;22.17;12.25;;;;;;;;;;5006692;28;20033;-74
2021/12/22 14:35:08;;;;;;;23.15;12.23;;;;;;;;;;4994616;28;20037;-74
2021/12/22 14:37:36;;;;;;;19.27;11.82;;;;;;;;;;5008307;28;20050;-74
2021/12/22 14:40:20;;;;;;;22.80;12.32;;;;;;;;;;5011350;28;20066;-74
2021/12/22 14:43:04;;;;;;;23.17;12.02;;;;;;;;;;5010295;28;20041;-75
2021/12/22 14:45:48;;;;;;;21.95;12.57;;;;;;;;;;5008365;28;20053;-76
2021/12/22 14:48:19;;;;;;;21.08;12.23;;;;;;;;;;5011657;28;20592;-75
2021/12/22 14:51:09;;;;;;;21.33;11.63;;;;;;;;;;5010998;28;20049;-75
2021/12/22 14:53:55;;;;;;;21.10;11.55;;;;;;;;;;5011641;28;20041;-75
2021/12/22 14:56:47;;;;;;;21.92;11.43;;;;;;;;;;5008509;28;20400;-75
2021/12/22 14:59:15;;;;;;;23.77;12.00;;;;;;;;;;5011009;28;20125;-75
2021/12/22 15:01:41;;;;;;;24.50;12.98;;;;;;;;;;5011383;28;20037;-75
2021/12/22 15:04:08;;;;;;;22.63;11.45;;;;;;;;;;4997761;28;20050;-75
2021/12/22 15:06:36;;;;;;;21.02;12.23;;;;;;;;;;4991699;28;20386;-75
2021/12/22 15:09:04;;;;;;;24.25;12.40;;;;;;;;;;4991596;28;20038;-77
2021/12/22 15:11:31;;;;;;;22.63;12.60;;;;;;;;;;4999241;28;20034;-76